Jakobshavn, Greenland
Current Conditions -  °F | °C
As of 8:50 AM on Monday 20 Oct 2014 (Local Time) from BGJN Reporting Station
Broken Clouds Broken Clouds  
Wind Chill:   Ceiling: 21000
Heat Index: 18°   Visibility: 6mi
Dew Point:   Wind: 17mph
Humidity: 49%   Direction: 90°E
Pressure: 30.09"   Gusts: NA
Location:  69.21°N, 51.09°W
Report Text: BGJN 201050Z 09015KT 9999 FEW130 BKN210 M08/M17 Q1019
Loading
Personal Weather Stations






























Interactive Weather Map
Tropical Storm Tracking
New forecast layout! Learn more

10-Day Weather Forecast

Advertisements
Track Severe Weather on mobile